createdAt,value
2017-12-04T00:01:48.267Z,20.63
2017-12-04T00:04:15.786Z,20.10
2017-12-04T00:06:43.291Z,20.73
2017-12-04T00:09:10.802Z,20.43
2017-12-04T00:11:38.329Z,21.50
2017-12-04T00:14:05.858Z,22.07
2017-12-04T00:16:33.377Z,20.67
2017-12-04T00:19:00.902Z,22.30
2017-12-04T00:21:28.418Z,22.17
2017-12-04T00:23:55.937Z,21.90
2017-12-04T00:26:23.458Z,22.70
2017-12-04T00:28:50.984Z,22.03
2017-12-04T00:31:18.506Z,22.87
2017-12-04T00:33:46.029Z,21.97
2017-12-04T00:36:13.567Z,22.60
2017-12-04T00:38:41.087Z,21.87
2017-12-04T00:41:08.611Z,22.37
2017-12-04T00:43:36.129Z,23.30
2017-12-04T00:46:03.636Z,22.20
2017-12-04T00:48:31.158Z,23.97
2017-12-04T00:50:58.690Z,22.53
2017-12-04T00:53:26.208Z,24.43
2017-12-04T00:55:53.742Z,23.63
2017-12-04T00:58:21.296Z,25.17
2017-12-04T01:00:48.814Z,25.50
2017-12-04T01:03:16.343Z,24.90
2017-12-04T01:05:43.860Z,24.23
2017-12-04T01:08:11.368Z,25.53
2017-12-04T01:10:38.893Z,26.17
2017-12-04T01:13:06.426Z,25.83
2017-12-04T01:15:33.942Z,25.10
2017-12-04T01:18:01.482Z,25.77
2017-12-04T01:20:29.003Z,24.77
2017-12-04T01:22:56.524Z,22.43
2017-12-04T01:25:24.046Z,25.07
2017-12-04T01:27:51.579Z,24.70
2017-12-04T01:30:19.096Z,24.17
2017-12-04T01:32:46.617Z,25.67
2017-12-04T01:35:14.146Z,24.27
2017-12-04T01:37:41.668Z,24.33
2017-12-04T01:40:09.189Z,24.77
2017-12-04T01:42:36.708Z,23.67
2017-12-04T01:45:04.228Z,24.60
2017-12-04T01:47:31.750Z,24.53
2017-12-04T01:49:59.262Z,24.20
2017-12-04T01:52:26.774Z,23.07
2017-12-04T01:54:54.288Z,22.93
2017-12-04T01:57:21.804Z,23.43
2017-12-04T01:59:49.326Z,21.97
2017-12-04T02:02:16.852Z,23.93
2017-12-04T02:04:44.380Z,22.40
2017-12-04T02:07:11.915Z,20.70
2017-12-04T02:09:39.428Z,19.20
2017-12-04T02:12:06.942Z,19.90
2017-12-04T02:14:34.454Z,20.07
2017-12-04T02:17:01.978Z,20.80
2017-12-04T02:19:29.495Z,18.63
2017-12-04T02:21:57.009Z,19.50
2017-12-04T02:24:24.525Z,20.80
2017-12-04T02:26:52.061Z,20.47
2017-12-04T02:29:19.575Z,19.90
2017-12-04T02:31:47.116Z,18.90
2017-12-04T02:34:14.629Z,20.77
2017-12-04T02:36:42.142Z,21.67
2017-12-04T02:39:09.662Z,20.37
2017-12-04T02:41:37.171Z,19.70
2017-12-04T02:44:04.688Z,19.77
2017-12-04T02:46:32.256Z,20.73
2017-12-04T02:48:59.756Z,20.63
2017-12-04T02:51:27.289Z,20.43
2017-12-04T02:53:54.805Z,20.83
2017-12-04T02:56:22.338Z,19.93
2017-12-04T02:58:49.869Z,20.40
2017-12-04T03:01:17.390Z,19.40
2017-12-04T03:03:44.929Z,19.17
2017-12-04T03:06:12.445Z,18.63
2017-12-04T03:08:39.970Z,18.63
2017-12-04T03:11:07.494Z,18.10
2017-12-04T03:13:35.018Z,16.83
2017-12-04T03:16:02.546Z,17.70
2017-12-04T03:18:30.071Z,17.20
2017-12-04T03:20:57.597Z,17.00
2017-12-04T03:23:25.115Z,16.53
2017-12-04T03:25:52.636Z,16.80
2017-12-04T03:28:20.151Z,16.50
2017-12-04T03:30:47.667Z,15.83
2017-12-04T03:33:15.190Z,17.33
2017-12-04T03:35:42.708Z,15.97
2017-12-04T03:38:10.246Z,17.43
2017-12-04T03:40:37.762Z,17.70
2017-12-04T03:43:05.287Z,17.43
2017-12-04T03:45:32.805Z,17.43
2017-12-04T03:48:00.342Z,17.97
2017-12-04T03:50:27.874Z,16.23
2017-12-04T03:52:55.402Z,18.20
2017-12-04T03:55:22.918Z,17.10
2017-12-04T03:57:50.444Z,16.27
2017-12-04T04:00:17.968Z,15.47
2017-12-04T04:02:45.493Z,16.20
2017-12-04T04:05:13.020Z,15.77
2017-12-04T04:07:40.543Z,14.80
2017-12-04T04:10:08.066Z,15.37
2017-12-04T04:12:35.597Z,14.97
2017-12-04T04:15:03.112Z,14.67
2017-12-04T04:17:30.649Z,13.70
2017-12-04T04:19:58.167Z,13.83
2017-12-04T04:22:25.696Z,13.80
2017-12-04T04:24:53.208Z,14.03
2017-12-04T04:27:20.763Z,13.30
2017-12-04T04:29:48.293Z,13.47
2017-12-04T04:32:15.814Z,12.53
2017-12-04T04:34:43.337Z,12.73
2017-12-04T04:37:10.851Z,12.67
2017-12-04T04:39:38.365Z,11.73
2017-12-04T04:42:05.886Z,11.10
2017-12-04T04:44:33.410Z,11.47
2017-12-04T04:47:00.929Z,10.93
2017-12-04T04:49:28.450Z,9.53
2017-12-04T04:51:55.966Z,10.40
2017-12-04T04:54:23.506Z,10.40
2017-12-04T04:56:51.040Z,10.20
2017-12-04T04:59:18.557Z,9.93
2017-12-04T05:01:46.095Z,10.00
2017-12-04T05:04:13.618Z,9.67
2017-12-04T05:06:41.134Z,10.10
2017-12-04T05:09:08.658Z,8.90
2017-12-04T05:11:36.165Z,9.33
2017-12-04T05:14:03.682Z,9.10
2017-12-04T05:16:31.207Z,8.63
2017-12-04T05:18:58.715Z,9.03
2017-12-04T05:21:26.235Z,9.27
2017-12-04T05:23:53.772Z,9.13
2017-12-04T05:26:21.407Z,8.40
2017-12-04T05:28:48.915Z,7.90
2017-12-04T05:31:16.425Z,7.83
2017-12-04T05:33:43.941Z,8.17
2017-12-04T05:36:11.475Z,7.60
2017-12-04T05:38:38.984Z,9.03
2017-12-04T05:41:06.553Z,8.20
2017-12-04T05:43:34.073Z,7.83
2017-12-04T05:46:01.667Z,7.60
2017-12-04T05:48:29.186Z,6.70
2017-12-04T05:50:56.821Z,6.77
2017-12-04T05:53:24.332Z,7.67
2017-12-04T05:55:51.914Z,6.80
2017-12-04T05:58:19.438Z,6.80
2017-12-04T06:00:46.952Z,6.73
2017-12-04T06:03:14.465Z,6.70
2017-12-04T06:05:41.980Z,6.00
2017-12-04T06:08:09.530Z,5.83
2017-12-04T06:10:37.073Z,6.63
2017-12-04T06:13:04.589Z,6.57
2017-12-04T06:15:32.116Z,5.90
2017-12-04T06:17:59.629Z,5.83
2017-12-04T06:20:27.155Z,5.63
2017-12-04T06:22:54.668Z,6.07
2017-12-04T06:25:22.194Z,4.90
2017-12-04T06:27:49.791Z,6.00
2017-12-04T06:30:17.322Z,5.60
2017-12-04T06:32:44.837Z,5.27
2017-12-04T06:35:12.346Z,5.00
2017-12-04T06:37:39.881Z,5.13
2017-12-04T06:40:07.402Z,5.10
2017-12-04T06:42:34.923Z,5.13
2017-12-04T06:45:02.453Z,5.07
2017-12-04T06:47:29.968Z,4.57
2017-12-04T06:49:57.482Z,4.57
2017-12-04T06:52:24.985Z,4.50
2017-12-04T06:54:52.511Z,4.30
2017-12-04T06:57:20.020Z,5.00
2017-12-04T06:59:47.542Z,4.30
2017-12-04T07:02:15.060Z,4.07
2017-12-04T07:04:42.582Z,4.63
2017-12-04T07:07:10.092Z,4.50
2017-12-04T07:09:37.601Z,4.67
2017-12-04T07:12:05.122Z,4.17
2017-12-04T07:14:32.630Z,3.63
2017-12-04T07:17:00.146Z,3.53
2017-12-04T07:19:27.665Z,4.30
2017-12-04T07:21:55.194Z,3.20
2017-12-04T07:24:22.721Z,3.80
2017-12-04T07:26:50.238Z,3.90
2017-12-04T07:29:17.768Z,4.23
2017-12-04T07:31:45.287Z,3.60
2017-12-04T07:34:12.800Z,3.63
2017-12-04T07:36:40.314Z,3.63
2017-12-04T07:39:07.834Z,3.30
2017-12-04T07:41:35.351Z,3.40
2017-12-04T07:44:02.863Z,3.47
2017-12-04T07:46:30.377Z,3.93
2017-12-04T07:48:57.908Z,3.53
2017-12-04T07:51:25.419Z,3.63
2017-12-04T07:53:52.936Z,3.33
2017-12-04T07:56:20.451Z,3.43
2017-12-04T07:58:48.080Z,3.10
2017-12-04T08:01:15.597Z,3.43
2017-12-04T08:03:43.109Z,3.07
2017-12-04T08:06:10.651Z,4.60
2017-12-04T08:08:38.160Z,3.03
2017-12-04T08:11:05.690Z,3.17
2017-12-04T08:13:33.211Z,3.70
2017-12-04T08:16:00.721Z,2.93
2017-12-04T08:18:28.240Z,3.67
2017-12-04T08:20:55.756Z,3.30
2017-12-04T08:23:23.284Z,3.63
2017-12-04T08:25:50.797Z,2.47
2017-12-04T08:28:18.306Z,3.27
2017-12-04T08:30:45.826Z,3.07
2017-12-04T08:33:13.337Z,3.10
2017-12-04T08:35:40.850Z,3.47
2017-12-04T08:38:08.366Z,2.80
2017-12-04T08:40:35.887Z,3.13
2017-12-04T08:43:03.393Z,3.73
2017-12-04T08:45:30.909Z,3.20
2017-12-04T08:47:58.429Z,3.33
2017-12-04T08:50:25.949Z,3.10
2017-12-04T08:52:53.526Z,3.30
2017-12-04T08:55:21.043Z,3.23
2017-12-04T08:57:48.568Z,2.53
2017-12-04T09:00:16.086Z,3.10
2017-12-04T09:02:43.623Z,3.30
2017-12-04T09:05:11.142Z,3.00
2017-12-04T09:07:38.661Z,3.03
2017-12-04T09:10:06.201Z,3.03
2017-12-04T09:12:33.718Z,3.40
2017-12-04T09:15:01.235Z,3.40
2017-12-04T09:17:28.750Z,3.27
2017-12-04T09:19:56.270Z,3.43
2017-12-04T09:22:23.783Z,3.10
2017-12-04T09:24:51.313Z,3.13
2017-12-04T09:27:18.829Z,4.20
2017-12-04T09:29:46.346Z,2.63
2017-12-04T09:32:13.867Z,3.23
2017-12-04T09:34:41.389Z,3.10
2017-12-04T09:37:08.944Z,2.90
2017-12-04T09:39:36.457Z,3.10
2017-12-04T09:42:03.983Z,3.10
2017-12-04T09:44:31.514Z,3.20
2017-12-04T09:46:59.038Z,3.23
2017-12-04T09:49:26.582Z,2.80
2017-12-04T09:51:54.098Z,2.90
2017-12-04T09:54:21.634Z,3.33
2017-12-04T09:56:49.138Z,3.00
2017-12-04T09:59:16.653Z,2.50
2017-12-04T10:01:44.166Z,1.70
2017-12-04T10:04:11.721Z,1.40
2017-12-04T10:06:39.222Z,1.23
2017-12-04T10:09:06.726Z,1.30
2017-12-04T10:11:34.254Z,1.13
2017-12-04T10:14:01.772Z,1.37
2017-12-04T10:16:29.304Z,1.57
2017-12-04T10:18:56.819Z,1.50
2017-12-04T10:21:24.348Z,1.20
2017-12-04T10:23:51.964Z,1.73
2017-12-04T10:26:19.503Z,1.80
2017-12-04T10:28:47.017Z,1.67
2017-12-04T10:31:14.527Z,2.23
2017-12-04T10:33:42.037Z,1.67
2017-12-04T10:36:09.546Z,1.60
2017-12-04T10:38:37.063Z,2.20
2017-12-04T10:41:04.579Z,2.03
2017-12-04T10:43:32.163Z,1.70
2017-12-04T10:45:59.686Z,2.23
2017-12-04T10:48:27.195Z,1.97
2017-12-04T10:50:54.709Z,1.80
2017-12-04T10:53:22.220Z,2.17
2017-12-04T10:55:49.732Z,1.80
2017-12-04T10:58:17.240Z,1.93
2017-12-04T11:00:44.761Z,2.60
2017-12-04T11:03:12.269Z,2.07
2017-12-04T11:05:39.788Z,2.03
2017-12-04T11:08:07.298Z,2.60
2017-12-04T11:10:34.820Z,2.60
2017-12-04T11:13:02.336Z,2.37
2017-12-04T11:15:29.875Z,2.20
2017-12-04T11:17:57.397Z,2.30
2017-12-04T11:20:24.915Z,3.20
2017-12-04T11:22:52.432Z,2.53
2017-12-04T11:25:19.964Z,2.67
2017-12-04T11:27:47.477Z,3.03
2017-12-04T11:30:14.987Z,2.23
2017-12-04T11:32:42.489Z,2.43
2017-12-04T11:35:10.032Z,2.20
2017-12-04T11:37:38.137Z,2.50
2017-12-04T11:40:07.077Z,2.20
2017-12-04T11:42:35.974Z,2.63
2017-12-04T11:45:05.421Z,2.40
2017-12-04T11:47:33.550Z,3.73
2017-12-04T11:50:16.544Z,3.00
2017-12-04T11:52:44.211Z,2.90
2017-12-04T11:55:11.791Z,5.07
2017-12-04T11:57:41.226Z,3.40
2017-12-04T12:00:08.737Z,3.33
2017-12-04T12:02:36.254Z,4.40
2017-12-04T12:05:03.874Z,2.90
2017-12-04T12:07:37.635Z,3.47
2017-12-04T12:10:05.212Z,2.10
2017-12-04T12:12:32.852Z,2.30
2017-12-04T12:15:00.384Z,2.20
2017-12-04T12:17:27.977Z,2.37
2017-12-04T12:19:55.490Z,1.80
2017-12-04T12:22:23.052Z,2.43
2017-12-04T12:24:50.569Z,2.10
2017-12-04T12:27:18.105Z,2.23
2017-12-04T12:29:45.622Z,2.13
2017-12-04T12:32:13.200Z,1.70
2017-12-04T12:34:40.914Z,1.67
2017-12-04T12:37:08.455Z,2.00
2017-12-04T12:39:36.080Z,2.07
2017-12-04T12:42:03.638Z,2.03
2017-12-04T12:44:31.220Z,2.20
2017-12-04T13:04:38.569Z,2.30
2017-12-04T13:07:06.088Z,2.13
2017-12-04T13:09:33.617Z,2.00
2017-12-04T13:12:01.215Z,2.13
2017-12-04T13:14:28.771Z,1.90
2017-12-04T13:16:56.292Z,2.57
2017-12-04T13:19:23.807Z,2.00
2017-12-04T13:21:51.347Z,2.27
2017-12-04T13:24:18.932Z,2.13
2017-12-04T13:26:46.450Z,2.93
2017-12-04T13:32:29.750Z,2.20
2017-12-04T13:40:51.834Z,2.30
2017-12-04T13:43:20.244Z,2.07
2017-12-04T13:45:47.853Z,2.30
2017-12-04T13:48:15.513Z,2.20
2017-12-04T13:50:43.182Z,2.23
2017-12-04T13:53:10.872Z,2.53
2017-12-04T13:55:38.549Z,2.20
2017-12-04T13:58:06.127Z,1.80
2017-12-04T14:00:33.763Z,2.17
2017-12-04T14:03:01.347Z,2.53
2017-12-04T14:05:28.899Z,2.20
2017-12-04T14:07:56.525Z,2.13
2017-12-04T14:10:24.917Z,2.20
2017-12-04T14:12:52.479Z,2.20
2017-12-04T14:15:19.986Z,1.40
2017-12-04T14:17:47.538Z,1.53
2017-12-04T14:20:15.086Z,1.57
2017-12-04T14:22:42.658Z,1.33
2017-12-04T14:25:10.248Z,1.70
2017-12-04T14:27:37.821Z,1.77
2017-12-04T14:30:05.444Z,1.60
2017-12-04T14:32:33.039Z,2.10
2017-12-04T14:35:00.566Z,1.60
2017-12-04T14:37:28.080Z,1.70
2017-12-04T14:39:55.590Z,2.00
2017-12-04T14:42:23.124Z,1.90
2017-12-04T14:44:50.734Z,1.80
2017-12-04T14:47:18.327Z,2.00
2017-12-04T14:49:46.015Z,2.40
2017-12-04T14:52:13.703Z,1.83
2017-12-04T14:54:41.270Z,1.80
2017-12-04T14:57:08.833Z,2.40
2017-12-04T14:59:36.352Z,2.40
2017-12-04T15:02:03.866Z,2.27
2017-12-04T15:04:31.457Z,2.63
2017-12-04T15:06:59.086Z,2.00
2017-12-04T15:09:26.605Z,2.00
2017-12-04T15:11:54.113Z,2.00
2017-12-04T15:14:21.630Z,2.27
2017-12-04T15:16:49.162Z,2.23
2017-12-04T15:19:16.680Z,2.70
2017-12-04T15:21:44.202Z,2.07
2017-12-04T15:24:11.715Z,2.70
2017-12-04T15:26:39.226Z,2.47
2017-12-04T15:29:06.752Z,3.20
2017-12-04T15:31:34.497Z,2.27
2017-12-04T15:34:03.252Z,1.87
2017-12-04T15:36:30.768Z,2.17
2017-12-04T15:38:58.283Z,2.70
2017-12-04T15:41:25.806Z,2.10
2017-12-04T15:43:53.316Z,2.10
2017-12-04T15:46:20.837Z,2.27
2017-12-04T15:48:48.363Z,2.30
2017-12-04T15:51:15.888Z,2.13
2017-12-04T15:53:43.413Z,2.10
2017-12-04T15:56:10.941Z,2.30
2017-12-04T15:58:38.472Z,2.10
2017-12-04T16:01:05.988Z,2.00
2017-12-04T16:03:33.498Z,2.10
2017-12-04T16:06:01.006Z,2.00
2017-12-04T16:08:28.516Z,2.17
2017-12-04T16:10:56.089Z,2.30
2017-12-04T16:13:23.584Z,2.03
2017-12-04T16:15:51.101Z,2.57
2017-12-04T16:18:18.612Z,2.27
2017-12-04T16:20:46.132Z,2.73
2017-12-04T16:23:13.656Z,2.50
2017-12-04T16:25:41.173Z,2.67
2017-12-04T16:28:08.680Z,2.23
2017-12-04T16:30:36.204Z,2.43
2017-12-04T16:33:03.732Z,1.97
2017-12-04T16:35:31.245Z,2.20
2017-12-04T16:37:58.762Z,2.50
2017-12-04T16:40:26.275Z,2.23
2017-12-04T16:42:53.782Z,2.17
2017-12-04T16:45:21.326Z,2.20
2017-12-04T16:47:48.841Z,2.00
2017-12-04T16:50:16.383Z,2.70
2017-12-04T16:52:43.893Z,2.07
2017-12-04T16:55:11.403Z,2.23
2017-12-04T16:57:39.025Z,1.90
2017-12-04T17:00:06.542Z,2.30
2017-12-04T17:02:34.065Z,2.20
2017-12-04T17:05:01.588Z,2.23
2017-12-04T17:07:29.093Z,2.13
2017-12-04T17:09:56.620Z,1.90
2017-12-04T17:12:24.173Z,2.33
2017-12-04T17:14:51.746Z,2.10
2017-12-04T17:17:19.267Z,2.10
2017-12-04T17:19:46.781Z,2.27
2017-12-04T17:22:14.286Z,2.07
2017-12-04T17:24:41.868Z,2.00
2017-12-04T17:27:09.395Z,2.70
2017-12-04T17:29:36.904Z,2.23
2017-12-04T17:32:04.420Z,2.30
2017-12-04T17:34:31.943Z,2.70
2017-12-04T17:36:59.482Z,2.03
2017-12-04T17:39:26.997Z,2.20
2017-12-04T17:41:54.519Z,2.00
2017-12-04T17:44:22.149Z,2.37
2017-12-04T17:46:49.665Z,2.60
2017-12-04T17:49:17.267Z,2.70
2017-12-04T17:51:44.821Z,2.00
2017-12-04T17:54:12.330Z,2.43
2017-12-04T17:56:39.925Z,2.40
2017-12-04T17:59:07.439Z,2.10
2017-12-04T18:01:35.161Z,2.13
2017-12-04T18:04:02.814Z,2.13
2017-12-04T18:06:30.328Z,4.60
2017-12-04T18:08:57.836Z,2.60
2017-12-04T18:11:25.374Z,2.87
2017-12-04T18:13:52.890Z,2.20
2017-12-04T18:16:20.440Z,1.67
2017-12-04T18:18:47.958Z,2.73
2017-12-04T18:21:15.546Z,2.27
2017-12-04T18:23:43.106Z,2.43
2017-12-04T18:26:10.641Z,2.63
2017-12-04T18:28:38.151Z,2.33
2017-12-04T18:31:05.780Z,2.70
2017-12-04T18:33:33.317Z,2.90
2017-12-04T18:36:00.835Z,2.30
2017-12-04T18:38:28.353Z,3.23
2017-12-04T18:40:55.857Z,2.50
2017-12-04T18:43:23.510Z,2.57
2017-12-04T18:45:51.019Z,2.60
2017-12-04T18:48:18.536Z,2.23
2017-12-04T18:50:46.141Z,2.40
2017-12-04T18:53:13.666Z,2.40
2017-12-04T18:55:41.174Z,2.20
2017-12-04T18:58:08.746Z,2.30
2017-12-04T19:00:36.270Z,2.87
2017-12-04T19:03:03.787Z,2.87
2017-12-04T19:05:31.324Z,2.70
2017-12-04T19:07:58.939Z,2.93
2017-12-04T19:10:26.466Z,2.60
2017-12-04T19:12:53.983Z,2.60
2017-12-04T19:15:21.553Z,2.33
2017-12-04T19:17:49.072Z,2.53
2017-12-04T19:20:16.683Z,3.07
2017-12-04T19:22:44.233Z,2.83
2017-12-04T19:25:11.787Z,2.67
2017-12-04T19:27:39.334Z,2.90
2017-12-04T19:30:06.895Z,3.20
2017-12-04T19:32:34.469Z,2.70
2017-12-04T19:35:01.998Z,2.40
2017-12-04T19:37:29.561Z,2.87
2017-12-04T19:39:57.073Z,3.73
2017-12-04T19:42:25.857Z,2.97
2017-12-04T19:44:53.653Z,2.70
2017-12-04T19:47:21.224Z,2.80
2017-12-04T19:49:48.738Z,3.10
2017-12-04T19:52:16.250Z,2.60
2017-12-04T19:54:43.779Z,3.23
2017-12-04T19:57:11.519Z,3.07
2017-12-04T19:59:39.086Z,2.57
2017-12-04T20:02:06.600Z,2.80
2017-12-04T20:04:34.118Z,2.77
2017-12-04T20:07:01.638Z,3.00
2017-12-04T20:09:29.152Z,2.73
2017-12-04T20:11:56.778Z,3.00
2017-12-04T20:14:24.320Z,3.13
2017-12-04T20:16:51.837Z,3.03
2017-12-04T20:19:19.349Z,2.57
2017-12-04T20:21:46.909Z,3.47
2017-12-04T20:24:14.430Z,3.30
2017-12-04T20:26:41.942Z,3.43
2017-12-04T20:29:09.468Z,3.30
2017-12-04T20:31:36.990Z,2.80
2017-12-04T20:34:04.598Z,3.10
2017-12-04T20:36:32.286Z,3.77
2017-12-04T20:38:59.803Z,3.10
2017-12-04T20:41:27.492Z,3.07
2017-12-04T20:43:55.160Z,3.30
2017-12-04T20:46:22.685Z,2.97
2017-12-04T20:48:50.207Z,3.40
2017-12-04T20:51:17.735Z,3.60
2017-12-04T20:53:45.263Z,2.70
2017-12-04T20:56:12.857Z,3.20
2017-12-04T20:58:40.373Z,3.00
2017-12-04T21:01:07.880Z,3.40
2017-12-04T21:03:35.399Z,3.07
2017-12-04T21:06:02.925Z,3.17
2017-12-04T21:08:42.250Z,3.53
2017-12-04T21:11:21.740Z,3.10
2017-12-04T21:14:01.138Z,3.10
2017-12-04T21:16:51.325Z,3.10
2017-12-04T21:19:19.229Z,3.53
2017-12-04T21:21:46.753Z,3.50
2017-12-04T21:24:14.382Z,3.50
2017-12-04T21:26:41.897Z,3.30
2017-12-04T21:29:09.422Z,3.47
2017-12-04T21:31:37.062Z,3.03
2017-12-04T21:34:04.573Z,3.20
2017-12-04T21:36:32.337Z,3.43
2017-12-04T21:38:59.862Z,3.13
2017-12-04T21:41:27.502Z,3.30
2017-12-04T21:43:55.056Z,2.87
2017-12-04T21:46:22.618Z,2.80
2017-12-04T21:48:50.130Z,3.50
2017-12-04T21:51:17.655Z,3.30
2017-12-04T21:53:45.308Z,2.87
2017-12-04T21:56:12.866Z,3.10
2017-12-04T21:58:40.386Z,3.83
2017-12-04T22:01:07.976Z,3.37
2017-12-04T22:03:35.480Z,3.37
2017-12-04T22:06:02.990Z,3.87
2017-12-04T22:08:30.519Z,3.33
2017-12-04T22:10:58.034Z,3.47
2017-12-04T22:13:25.580Z,3.00
2017-12-04T22:15:53.156Z,2.47
2017-12-04T22:18:20.642Z,2.90
2017-12-04T22:20:48.262Z,3.33
2017-12-04T22:23:15.935Z,3.80
2017-12-04T22:25:43.465Z,3.50
2017-12-04T22:28:11.056Z,4.70
2017-12-04T22:30:38.762Z,3.20
2017-12-04T22:33:06.389Z,3.10
2017-12-04T22:35:33.897Z,2.93
2017-12-04T22:38:01.491Z,3.10
2017-12-04T22:40:29.016Z,3.93
2017-12-04T22:42:56.614Z,3.33
2017-12-04T22:45:24.138Z,3.00
2017-12-04T22:47:51.660Z,2.73
2017-12-04T22:50:19.408Z,3.60
2017-12-04T22:52:46.935Z,3.77
2017-12-04T22:55:14.513Z,3.70
2017-12-04T22:57:42.048Z,3.03
2017-12-04T23:00:09.737Z,2.70
2017-12-04T23:02:37.262Z,3.33
2017-12-04T23:05:04.876Z,3.17
2017-12-04T23:07:32.386Z,2.93
2017-12-04T23:09:59.897Z,3.00
2017-12-04T23:12:27.457Z,2.83
2017-12-04T23:14:54.964Z,2.77
2017-12-04T23:17:22.478Z,3.33
2017-12-04T23:19:50.004Z,2.57
2017-12-04T23:22:17.566Z,3.53
2017-12-04T23:24:45.934Z,3.17
2017-12-04T23:27:13.442Z,3.40
2017-12-04T23:29:40.976Z,2.97
2017-12-04T23:32:08.482Z,3.70
2017-12-04T23:34:36.081Z,3.10
2017-12-04T23:37:03.650Z,3.63
2017-12-04T23:39:31.161Z,3.07
2017-12-04T23:41:58.686Z,3.53
2017-12-04T23:44:26.205Z,3.90
2017-12-04T23:46:53.742Z,3.50
2017-12-04T23:49:21.275Z,2.73
2017-12-04T23:51:48.806Z,3.20
2017-12-04T23:54:21.304Z,3.30
2017-12-04T23:56:48.831Z,4.10
2017-12-04T23:59:16.348Z,3.43
